Time;durP1;ratioP1;P1;durP2;ratioP2;P2;SDS_P1;SDS_P2;PMS_P1;PMS_P2;Temp;Humidity;BMP_temperature;BMP_pressure;BME280_temperature;BME280_humidity;BME280_pressure;Samples;Min_cycle;Max_cycle;Signal;HPM_P1;HPM_P2
2020/12/23 00:01:17;;;;;;;19.53;6.00;;;5.70;99.90;;;;;;5012870;28;20244;-80
2020/12/23 00:03:45;;;;;;;17.13;5.90;;;5.60;99.90;;;;;;5010971;28;20487;-80
2020/12/23 00:06:12;;;;;;;12.87;5.47;;;5.60;99.90;;;;;;5023446;28;20241;-81
2020/12/23 00:08:40;;;;;;;12.20;4.80;;;5.50;99.90;;;;;;5029033;28;20231;-81
2020/12/23 00:11:07;;;;;;;13.97;6.03;;;5.50;99.90;;;;;;5030460;28;21017;-81
2020/12/23 00:13:37;;;;;;;15.43;4.67;;;5.50;99.90;;;;;;5029609;28;20724;-80
2020/12/23 00:16:07;;;;;;;14.90;5.10;;;5.40;99.90;;;;;;5029913;28;20726;-81
2020/12/23 00:18:35;;;;;;;11.57;4.40;;;5.70;99.90;;;;;;5029880;28;20516;-81
2020/12/23 00:21:02;;;;;;;13.43;4.50;;;5.90;99.90;;;;;;5025420;28;20507;-82
2020/12/23 00:23:29;;;;;;;12.17;4.07;;;6.00;99.90;;;;;;5027630;28;20731;-81
2020/12/23 00:25:57;;;;;;;11.63;4.40;;;5.80;99.90;;;;;;5045244;28;20486;-81
2020/12/23 00:28:24;;;;;;;10.50;4.53;;;6.10;99.90;;;;;;5052534;28;20492;-81
2020/12/23 00:30:51;;;;;;;15.47;5.07;;;5.90;99.90;;;;;;5045127;28;20236;-80
2020/12/23 00:33:26;;;;;;;9.90;4.67;;;5.80;99.90;;;;;;5031999;28;20490;-80
2020/12/23 00:35:54;;;;;;;7.03;4.40;;;5.80;99.90;;;;;;5032260;28;20572;-80
2020/12/23 00:38:22;;;;;;;16.60;4.70;;;5.60;99.90;;;;;;5031872;28;20325;-80
2020/12/23 00:40:49;;;;;;;11.67;3.93;;;5.30;99.90;;;;;;5031618;28;21278;-80
2020/12/23 00:43:16;;;;;;;11.00;4.37;;;5.40;99.90;;;;;;5029795;28;21307;-80
2020/12/23 00:45:44;;;;;;;10.43;4.70;;;5.40;99.90;;;;;;5030966;28;20553;-79
2020/12/23 00:48:11;;;;;;;10.83;5.23;;;5.50;99.90;;;;;;5014038;28;20518;-80
2020/12/23 00:50:39;;;;;;;10.60;4.20;;;5.40;99.90;;;;;;5031728;28;20520;-79
2020/12/23 00:53:07;;;;;;;8.73;4.13;;;5.10;99.90;;;;;;5031070;28;20978;-80
2020/12/23 00:55:38;;;;;;;10.17;4.37;;;5.00;99.90;;;;;;5030720;28;20489;-79
2020/12/23 00:58:06;;;;;;;8.97;3.20;;;5.00;99.90;;;;;;5013520;28;20491;-79
2020/12/23 01:00:33;;;;;;;11.27;4.00;;;5.00;99.90;;;;;;5031260;28;20775;-80
2020/12/23 01:03:03;;;;;;;10.47;3.47;;;4.90;99.90;;;;;;5030716;28;21093;-79
2020/12/23 01:05:30;;;;;;;10.10;3.80;;;4.90;99.90;;;;;;5030981;28;20553;-80
2020/12/23 01:07:57;;;;;;;7.10;3.47;;;4.90;99.90;;;;;;5031313;28;20487;-79
2020/12/23 01:10:25;;;;;;;10.87;4.20;;;5.00;99.90;;;;;;5031682;28;20487;-80
2020/12/23 01:12:53;;;;;;;9.87;4.30;;;5.10;99.90;;;;;;5030045;28;20480;-80
2020/12/23 01:15:20;;;;;;;9.10;3.87;;;4.90;99.90;;;;;;5030931;28;20506;-80
2020/12/23 01:17:48;;;;;;;11.73;3.40;;;4.90;99.90;;;;;;5030279;28;20882;-80
2020/12/23 01:20:15;;;;;;;10.93;3.70;;;4.80;99.90;;;;;;5023106;28;20540;-79
2020/12/23 01:22:42;;;;;;;8.43;3.60;;;4.80;99.90;;;;;;5029274;28;20479;-81
2020/12/23 01:25:10;;;;;;;10.60;4.23;;;4.70;99.90;;;;;;5030441;28;20474;-79
2020/12/23 01:27:38;;;;;;;9.80;4.23;;;4.80;99.90;;;;;;5027669;28;20692;-80
2020/12/23 01:30:05;;;;;;;7.93;4.53;;;5.20;99.90;;;;;;5030907;28;20580;-79
2020/12/23 01:32:33;;;;;;;7.33;5.03;;;5.20;99.90;;;;;;5029993;28;20490;-80
2020/12/23 01:35:01;;;;;;;10.23;5.43;;;5.60;99.90;;;;;;5028981;28;20565;-79
2020/12/23 01:37:28;;;;;;;8.00;5.37;;;5.60;99.90;;;;;;5030120;28;20509;-79
2020/12/23 01:39:55;;;;;;;8.47;4.70;;;5.60;99.90;;;;;;5011741;28;20513;-80
2020/12/23 01:42:23;;;;;;;11.57;5.60;;;5.30;99.90;;;;;;5029233;28;20489;-79
2020/12/23 01:44:51;;;;;;;8.43;4.20;;;4.90;99.90;;;;;;5029775;28;20502;-79
2020/12/23 01:47:22;;;;;;;6.67;3.57;;;4.60;99.90;;;;;;5030356;28;20553;-80
2020/12/23 01:49:51;;;;;;;8.40;3.30;;;4.50;99.90;;;;;;5030210;28;20970;-79
2020/12/23 01:52:19;;;;;;;9.03;3.37;;;4.40;99.90;;;;;;5012161;28;20503;-80
2020/12/23 01:54:47;;;;;;;5.77;3.23;;;4.30;99.90;;;;;;5029841;28;20549;-80
2020/12/23 01:57:14;;;;;;;6.10;3.73;;;4.30;99.90;;;;;;5030320;28;20514;-79
2020/12/23 01:59:46;;;;;;;7.03;3.70;;;4.60;99.90;;;;;;5030141;28;20822;-79
2020/12/23 02:02:29;;;;;;;6.90;4.40;;;4.50;99.90;;;;;;5030024;28;20494;-79
2020/12/23 02:04:59;;;;;;;8.37;3.40;;;4.50;99.90;;;;;;5030355;28;20528;-79
2020/12/23 02:07:28;;;;;;;6.47;3.23;;;4.30;99.90;;;;;;5025393;28;20546;-79
2020/12/23 02:09:58;;;;;;;3.10;2.40;;;4.20;99.90;;;;;;5029768;28;20553;-79
2020/12/23 02:12:26;;;;;;;4.37;3.07;;;4.10;99.90;;;;;;5029683;28;20470;-80
2020/12/23 02:14:54;;;;;;;8.57;2.93;;;4.10;99.90;;;;;;5011656;28;20561;-79
2020/12/23 02:17:23;;;;;;;7.90;3.23;;;4.10;99.90;;;;;;5030113;28;20463;-79
2020/12/23 02:19:50;;;;;;;5.43;2.80;;;4.10;99.90;;;;;;5030249;28;20546;-80
2020/12/23 02:22:23;;;;;;;5.30;2.90;;;4.00;99.90;;;;;;5029775;28;20544;-80
2020/12/23 02:24:53;;;;;;;6.17;3.33;;;4.00;99.90;;;;;;5029398;28;20498;-79
2020/12/23 02:27:21;;;;;;;4.83;3.37;;;4.00;99.90;;;;;;5017030;28;20497;-79
2020/12/23 02:29:52;;;;;;;6.40;3.50;;;4.00;99.90;;;;;;5010174;28;20518;-80
2020/12/23 02:32:20;;;;;;;8.03;3.67;;;4.00;99.90;;;;;;5009918;28;20570;-79
2020/12/23 02:34:49;;;;;;;9.80;3.70;;;4.10;99.90;;;;;;5012896;28;20546;-80
2020/12/23 02:37:18;;;;;;;4.53;3.60;;;4.10;99.90;;;;;;5028960;28;21035;-81
2020/12/23 02:39:49;;;;;;;9.90;4.07;;;4.10;99.90;;;;;;5028464;28;20515;-80
2020/12/23 02:42:18;;;;;;;6.27;3.93;;;4.20;99.90;;;;;;5028450;28;20535;-80
2020/12/23 02:44:47;;;;;;;6.13;4.00;;;4.10;99.90;;;;;;5028705;28;20551;-79
2020/12/23 02:47:18;;;;;;;4.40;3.53;;;4.10;99.90;;;;;;5029527;28;20517;-79
2020/12/23 02:49:45;;;;;;;8.27;5.43;;;4.20;99.90;;;;;;5029539;28;20507;-81
2020/12/23 02:52:13;;;;;;;8.77;6.97;;;4.70;99.90;;;;;;5005088;28;20530;-79
2020/12/23 02:54:41;;;;;;;7.43;5.83;;;5.00;99.90;;;;;;5023768;28;20565;-80
2020/12/23 02:57:09;;;;;;;6.23;4.60;;;4.80;99.90;;;;;;5029090;28;20491;-80
2020/12/23 02:59:39;;;;;;;6.67;4.60;;;4.50;99.90;;;;;;5029448;28;20506;-79
2020/12/23 03:02:07;;;;;;;5.13;4.10;;;4.30;99.90;;;;;;5028977;28;20486;-79
2020/12/23 03:04:35;;;;;;;5.07;4.10;;;4.20;99.90;;;;;;5011057;28;20508;-80
2020/12/23 03:07:02;;;;;;;5.93;5.33;;;4.20;99.90;;;;;;5029134;28;20884;-80
2020/12/23 03:09:30;;;;;;;7.53;6.70;;;4.60;99.90;;;;;;5010959;28;20557;-82
2020/12/23 03:11:57;;;;;;;10.37;8.50;;;4.80;99.90;;;;;;5028076;28;20537;-81
2020/12/23 03:14:25;;;;;;;9.60;7.67;;;5.00;99.90;;;;;;5020843;28;20474;-81
2020/12/23 03:16:53;;;;;;;11.20;9.93;;;4.80;99.90;;;;;;5029558;28;21101;-80
2020/12/23 03:19:20;;;;;;;9.60;8.70;;;4.90;99.90;;;;;;5033158;28;20471;-81
2020/12/23 03:21:48;;;;;;;9.93;8.93;;;4.80;99.90;;;;;;5015111;28;20537;-81
2020/12/23 03:24:15;;;;;;;9.47;8.57;;;4.80;99.90;;;;;;5032361;28;20556;-81
2020/12/23 03:26:43;;;;;;;7.77;7.07;;;4.50;99.90;;;;;;5000806;28;21131;-81
2020/12/23 03:29:10;;;;;;;7.40;6.70;;;4.30;99.90;;;;;;5013436;28;20540;-81
2020/12/23 03:31:39;;;;;;;7.23;6.53;;;4.30;99.90;;;;;;5027899;28;20514;-82
2020/12/23 03:34:08;;;;;;;7.07;6.37;;;4.20;99.90;;;;;;5032550;28;20537;-82
2020/12/23 03:36:35;;;;;;;6.50;5.83;;;4.10;99.90;;;;;;5016473;28;20478;-81
2020/12/23 03:39:04;;;;;;;8.80;7.77;;;4.00;99.90;;;;;;5032066;28;20981;-81
2020/12/23 03:41:32;;;;;;;9.37;8.27;;;4.20;99.90;;;;;;5032640;28;20478;-82
2020/12/23 03:44:00;;;;;;;8.80;8.00;;;4.20;99.90;;;;;;5013882;28;20484;-81
2020/12/23 03:46:27;;;;;;;9.87;7.60;;;4.00;99.90;;;;;;5032593;28;20513;-81
2020/12/23 03:48:54;;;;;;;9.37;8.47;;;4.00;99.90;;;;;;5032412;28;20484;-81
2020/12/23 03:51:22;;;;;;;7.93;6.77;;;4.10;99.90;;;;;;5032645;28;20563;-81
2020/12/23 03:53:50;;;;;;;7.00;6.40;;;4.00;99.90;;;;;;5031593;28;20494;-81
2020/12/23 03:56:17;;;;;;;6.50;6.00;;;3.90;99.90;;;;;;5032488;28;20513;-80
2020/12/23 03:58:45;;;;;;;8.17;7.37;;;3.90;99.90;;;;;;5032342;28;20514;-81
2020/12/23 04:01:12;;;;;;;8.10;7.40;;;4.30;99.90;;;;;;5032636;28;20477;-81
2020/12/23 04:03:41;;;;;;;9.53;8.73;;;4.40;99.90;;;;;;5031646;28;20573;-81
2020/12/23 04:06:08;;;;;;;10.90;9.90;;;4.40;99.90;;;;;;5032255;28;20487;-81
2020/12/23 04:08:38;;;;;;;11.57;10.40;;;4.40;99.90;;;;;;5032900;28;20508;-82
2020/12/23 04:11:05;;;;;;;12.27;11.07;;;4.50;99.90;;;;;;5031092;28;20822;-81
2020/12/23 04:13:33;;;;;;;13.30;10.43;;;4.40;99.90;;;;;;5025261;28;20471;-81
2020/12/23 04:16:00;;;;;;;8.83;7.43;;;4.40;99.90;;;;;;5014315;28;20485;-81
2020/12/23 04:18:28;;;;;;;8.47;7.60;;;4.10;99.90;;;;;;5031017;28;20495;-81
2020/12/23 04:20:55;;;;;;;9.70;8.23;;;4.10;99.90;;;;;;5032871;28;20582;-81
2020/12/23 04:23:22;;;;;;;10.70;9.70;;;4.30;99.90;;;;;;5013609;28;20475;-81
2020/12/23 04:25:51;;;;;;;10.70;9.60;;;4.50;99.90;;;;;;5028306;28;20501;-81
2020/12/23 04:28:18;;;;;;;11.20;10.03;;;4.50;99.90;;;;;;5031797;28;20517;-81
2020/12/23 04:30:47;;;;;;;13.30;12.00;;;4.50;99.90;;;;;;5031277;28;20564;-81
2020/12/23 04:33:15;;;;;;;13.83;12.40;;;4.70;99.90;;;;;;5030479;28;21049;-81
2020/12/23 04:35:58;;;;;;;12.87;11.53;;;4.50;99.90;;;;;;5029558;28;20504;-81
2020/12/23 04:38:25;;;;;;;13.23;11.97;;;4.50;99.90;;;;;;5031851;28;20530;-81
2020/12/23 04:40:54;;;;;;;11.50;10.40;;;4.40;99.90;;;;;;5014240;28;20884;-82
2020/12/23 04:43:21;;;;;;;11.77;10.70;;;4.30;99.90;;;;;;5031261;28;20474;-82
2020/12/23 04:45:49;;;;;;;10.63;9.10;;;4.20;99.90;;;;;;5014013;28;20547;-81
2020/12/23 04:48:26;;;;;;;9.30;7.33;;;4.00;99.90;;;;;;5024325;28;20583;-81
2020/12/23 04:50:56;;;;;;;10.00;8.10;;;4.10;99.90;;;;;;5031486;28;20477;-81
2020/12/23 04:53:25;;;;;;;10.23;9.07;;;4.10;99.90;;;;;;5030728;28;20492;-81
2020/12/23 04:55:53;;;;;;;13.83;9.97;;;4.20;99.90;;;;;;5014924;28;20482;-81
2020/12/23 04:58:24;;;;;;;13.77;12.37;;;4.30;99.90;;;;;;5010533;28;20479;-81
2020/12/23 05:00:51;;;;;;;11.30;10.10;;;4.30;99.90;;;;;;5011695;28;20534;-81
2020/12/23 05:03:19;;;;;;;9.90;8.90;;;4.00;99.90;;;;;;5029272;28;20480;-81
2020/12/23 05:05:47;;;;;;;10.13;9.13;;;3.90;99.90;;;;;;5027994;28;20480;-81
2020/12/23 05:08:17;;;;;;;9.47;8.57;;;3.80;99.90;;;;;;5030432;28;20515;-81
2020/12/23 05:10:45;;;;;;;11.27;8.33;;;3.70;99.90;;;;;;5028068;28;20528;-82
2020/12/23 05:13:13;;;;;;;10.30;9.40;;;3.90;99.90;;;;;;5014012;28;20478;-81
2020/12/23 05:15:41;;;;;;;11.17;9.80;;;4.00;99.90;;;;;;5028632;28;21013;-81
2020/12/23 05:18:08;;;;;;;15.60;11.53;;;4.10;99.90;;;;;;5031930;28;20504;-81
2020/12/23 05:20:38;;;;;;;14.23;12.37;;;4.50;99.90;;;;;;5024361;28;20482;-82
2020/12/23 05:23:05;;;;;;;14.43;12.97;;;4.50;99.90;;;;;;5026705;28;20480;-83
2020/12/23 05:25:34;;;;;;;11.97;10.70;;;4.30;99.90;;;;;;5030705;28;20555;-83
2020/12/23 05:28:02;;;;;;;13.27;11.97;;;4.20;99.90;;;;;;5033059;28;20483;-82
2020/12/23 05:30:33;;;;;;;14.97;13.50;;;4.20;99.90;;;;;;5030791;28;20518;-82
2020/12/23 05:33:00;;;;;;;14.23;12.67;;;4.20;99.90;;;;;;5034483;28;20508;-82
2020/12/23 05:35:28;;;;;;;12.77;11.47;;;4.10;99.90;;;;;;5029610;28;20484;-82
2020/12/23 05:37:57;;;;;;;12.03;10.93;;;4.30;99.90;;;;;;4991758;28;20490;-83
2020/12/23 05:40:25;;;;;;;12.03;10.93;;;4.00;99.90;;;;;;4991459;28;20506;-82
2020/12/23 05:42:52;;;;;;;13.37;12.07;;;4.00;99.90;;;;;;4983692;28;20536;-82
2020/12/23 05:45:22;;;;;;;15.17;13.57;;;4.10;99.90;;;;;;4981232;28;20505;-83
2020/12/23 05:47:53;;;;;;;16.20;14.70;;;4.40;99.90;;;;;;4993479;28;20476;-82
2020/12/23 05:50:22;;;;;;;16.10;14.47;;;4.30;99.90;;;;;;5008841;28;20491;-83
2020/12/23 05:52:53;;;;;;;13.83;12.53;;;4.40;99.90;;;;;;4991009;28;20914;-83
2020/12/23 05:55:21;;;;;;;10.67;9.67;;;4.10;99.90;;;;;;4993502;28;20476;-83
2020/12/23 05:57:48;;;;;;;9.27;8.47;;;3.90;99.90;;;;;;4992722;28;20522;-82
2020/12/23 06:00:16;;;;;;;11.73;10.00;;;3.70;99.90;;;;;;4992921;28;20552;-81
2020/12/23 06:03:05;;;;;;;13.50;11.63;;;4.10;99.90;;;;;;4990484;28;21504;-81
2020/12/23 06:05:34;;;;;;;12.97;11.67;;;4.10;99.90;;;;;;4987790;28;20483;-83
2020/12/23 06:08:04;;;;;;;13.73;12.43;;;4.20;99.90;;;;;;4987477;28;20488;-82
2020/12/23 06:10:36;;;;;;;15.60;13.77;;;4.20;99.90;;;;;;5000055;28;21001;-81
2020/12/23 06:13:12;;;;;;;17.17;13.67;;;4.00;99.90;;;;;;4983260;28;20470;-81
2020/12/23 06:15:42;;;;;;;18.70;14.90;;;3.80;99.90;;;;;;4979115;28;20483;-82
2020/12/23 06:18:17;;;;;;;18.47;15.43;;;4.20;99.90;;;;;;4996321;28;21044;-82
2020/12/23 06:20:45;;;;;;;23.20;17.50;;;4.00;99.90;;;;;;4982824;28;20550;-82
2020/12/23 06:23:26;;;;;;;17.00;14.50;;;4.30;99.90;;;;;;4980441;28;21071;-82
2020/12/23 06:25:54;;;;;;;17.83;15.60;;;4.10;99.90;;;;;;4982834;28;20482;-84
2020/12/23 06:28:23;;;;;;;19.73;15.30;;;4.00;99.90;;;;;;4981842;28;20478;-81
2020/12/23 06:31:09;;;;;;;19.96;13.89;;;4.10;99.90;;;;;;1907086;28;10022992;-82
2020/12/23 06:33:39;;;;;;;20.73;14.60;;;4.40;99.90;;;;;;4641477;28;10001753;-83
2020/12/23 06:36:11;;;;;;;19.93;17.77;;;4.20;99.90;;;;;;5000566;28;20569;-83
2020/12/23 06:38:38;;;;;;;24.73;15.60;;;4.30;99.90;;;;;;5031666;28;20577;-82
2020/12/23 06:41:07;;;;;;;24.73;17.80;;;4.30;99.90;;;;;;5026980;28;20493;-82
2020/12/23 06:43:53;;;;;;;25.43;21.73;;;4.00;99.90;;;;;;5014975;28;20485;-82
2020/12/23 06:46:20;;;;;;;23.67;20.17;;;4.30;99.90;;;;;;5009130;28;20581;-82
2020/12/23 06:48:49;;;;;;;21.63;18.13;;;4.00;99.90;;;;;;5031778;28;20485;-84
2020/12/23 06:51:41;;;;;;;24.47;19.10;;;3.80;99.90;;;;;;5048992;28;20534;-82
2020/12/23 06:54:08;;;;;;;23.63;16.30;;;4.00;99.90;;;;;;5037481;28;20581;-82
2020/12/23 06:56:46;;;;;;;25.90;19.80;;;3.70;99.90;;;;;;5048328;28;20970;-82
2020/12/23 06:59:47;;;;;;;20.37;18.17;;;4.00;99.90;;;;;;5016007;28;20527;-81
2020/12/23 07:02:15;;;;;;;19.97;16.40;;;3.90;99.90;;;;;;5019027;28;20901;-81
2020/12/23 07:04:48;;;;;;;19.60;14.37;;;3.60;99.90;;;;;;5027696;28;20489;-82
2020/12/23 07:07:33;;;;;;;20.17;13.53;;;3.50;99.90;;;;;;5026019;28;20527;-81
2020/12/23 07:10:11;;;;;;;15.13;12.47;;;3.50;99.90;;;;;;5020046;28;20509;-80
2020/12/23 07:12:43;;;;;;;14.50;12.27;;;3.40;99.90;;;;;;5022868;28;20477;-80
2020/12/23 07:15:13;;;;;;;15.00;11.23;;;3.40;99.90;;;;;;5013970;28;20488;-81
2020/12/23 07:17:41;;;;;;;11.87;9.83;;;3.40;99.90;;;;;;5022046;28;20543;-81
2020/12/23 07:20:13;;;;;;;13.67;9.67;;;3.30;99.90;;;;;;5017451;28;20478;-81
2020/12/23 07:22:47;;;;;;;15.33;8.97;;;3.30;99.90;;;;;;5026708;28;20538;-81
2020/12/23 07:25:18;;;;;;;9.80;8.80;;;3.30;99.90;;;;;;5019253;28;20481;-80
2020/12/23 07:27:55;;;;;;;10.20;8.07;;;3.20;99.90;;;;;;5028110;28;20515;-79
2020/12/23 07:30:24;;;;;;;9.40;8.33;;;3.20;99.90;;;;;;5026188;28;20479;-81
2020/12/23 07:33:00;;;;;;;11.10;8.90;;;3.20;99.90;;;;;;5005587;28;20488;-80
2020/12/23 07:35:30;;;;;;;10.83;9.23;;;3.10;99.90;;;;;;5021435;28;20495;-80
2020/12/23 07:38:00;;;;;;;10.27;9.17;;;3.10;99.90;;;;;;4992403;28;20525;-80
2020/12/23 07:40:29;;;;;;;8.57;7.73;;;3.20;99.90;;;;;;4982153;28;20551;-80
2020/12/23 07:42:58;;;;;;;9.37;8.20;;;3.20;99.90;;;;;;4988247;28;21192;-81
2020/12/23 07:45:27;;;;;;;10.00;8.63;;;3.20;99.90;;;;;;4979614;28;20490;-80
2020/12/23 07:48:00;;;;;;;8.97;8.13;;;3.10;99.90;;;;;;4980544;28;20895;-80
2020/12/23 07:50:30;;;;;;;9.10;7.80;;;3.20;99.90;;;;;;4980113;28;20482;-80
2020/12/23 07:52:58;;;;;;;8.17;7.43;;;3.20;99.90;;;;;;4982661;28;20494;-81
2020/12/23 07:55:26;;;;;;;8.80;8.00;;;3.10;99.90;;;;;;4973232;28;20487;-80
2020/12/23 07:57:54;;;;;;;8.00;7.20;;;3.10;99.90;;;;;;4980193;28;20488;-80
2020/12/23 08:00:22;;;;;;;8.23;7.00;;;3.10;99.90;;;;;;4997311;28;20477;-81
2020/12/23 08:02:54;;;;;;;8.77;7.27;;;3.10;99.90;;;;;;4990930;28;20557;-81
2020/12/23 08:05:22;;;;;;;7.90;7.20;;;3.10;99.90;;;;;;4989360;28;20473;-81
2020/12/23 08:07:51;;;;;;;7.70;6.90;;;3.10;99.90;;;;;;4998362;28;20952;-80
2020/12/23 08:10:21;;;;;;;8.83;7.93;;;3.10;99.90;;;;;;4990322;28;20493;-80
2020/12/23 08:12:54;;;;;;;12.57;9.53;;;3.10;99.90;;;;;;4989000;28;20516;-81
2020/12/23 08:15:21;;;;;;;15.90;12.13;;;3.10;99.90;;;;;;4983142;28;20487;-80
2020/12/23 08:17:59;;;;;;;14.77;13.07;;;3.10;99.90;;;;;;4987060;28;20543;-80
2020/12/23 08:20:27;;;;;;;10.57;9.43;;;3.10;99.90;;;;;;4987683;28;20476;-80
2020/12/23 08:22:56;;;;;;;8.97;8.07;;;3.10;99.90;;;;;;4991544;28;20489;-80
2020/12/23 08:25:25;;;;;;;8.70;7.80;;;3.10;99.90;;;;;;4994552;28;20552;-81
2020/12/23 08:27:56;;;;;;;8.90;8.00;;;3.10;99.90;;;;;;4992324;28;20556;-81
2020/12/23 08:30:25;;;;;;;8.10;7.40;;;3.10;99.90;;;;;;4986330;28;20483;-82
2020/12/23 08:32:58;;;;;;;8.97;7.57;;;3.10;99.90;;;;;;4994849;28;20475;-80
2020/12/23 08:35:28;;;;;;;9.50;8.60;;;3.10;99.90;;;;;;5000504;28;20962;-80
2020/12/23 08:37:57;;;;;;;8.83;8.03;;;3.10;99.90;;;;;;4994798;28;20566;-80
2020/12/23 08:40:24;;;;;;;8.93;8.03;;;3.10;99.90;;;;;;4992665;28;20485;-79
2020/12/23 08:42:55;;;;;;;8.97;8.17;;;3.20;99.90;;;;;;4992304;28;20505;-79
2020/12/23 08:45:26;;;;;;;9.30;8.47;;;3.10;99.90;;;;;;4999295;28;21054;-80
2020/12/23 08:47:56;;;;;;;9.07;8.17;;;3.20;99.90;;;;;;4991980;28;20521;-80
2020/12/23 08:50:26;;;;;;;8.70;7.90;;;3.20;99.90;;;;;;4997557;28;21034;-81
2020/12/23 08:52:56;;;;;;;8.67;7.80;;;3.30;99.90;;;;;;4998834;28;20493;-81
2020/12/23 08:55:25;;;;;;;11.70;8.80;;;3.30;99.90;;;;;;4999256;28;20489;-80
2020/12/23 08:58:06;;;;;;;8.57;7.83;;;3.30;99.90;;;;;;4998553;28;20496;-79
2020/12/23 09:00:33;;;;;;;9.17;8.37;;;3.40;99.90;;;;;;4995306;28;20475;-81
2020/12/23 09:03:03;;;;;;;9.13;8.23;;;3.40;99.90;;;;;;4989290;28;20476;-80
2020/12/23 09:05:33;;;;;;;10.80;9.70;;;3.50;99.90;;;;;;4996188;28;20966;-80
2020/12/23 09:08:05;;;;;;;10.03;9.03;;;3.50;99.90;;;;;;4991122;28;20498;-80
2020/12/23 09:10:34;;;;;;;9.27;8.37;;;3.50;99.90;;;;;;4989240;28;20475;-80
2020/12/23 09:13:11;;;;;;;9.47;8.67;;;3.50;99.90;;;;;;4989412;28;20483;-80
2020/12/23 09:15:40;;;;;;;9.50;8.50;;;3.50;99.90;;;;;;4988425;28;20480;-80
2020/12/23 09:18:09;;;;;;;8.63;7.83;;;3.60;99.90;;;;;;4993277;28;20489;-79
2020/12/23 09:20:37;;;;;;;9.87;8.70;;;3.60;99.90;;;;;;4997913;28;20493;-80
2020/12/23 09:23:07;;;;;;;11.80;10.40;;;3.60;99.90;;;;;;4994750;28;20490;-79
2020/12/23 09:25:35;;;;;;;10.53;9.50;;;3.60;99.90;;;;;;4996480;28;21011;-80
2020/12/23 09:28:08;;;;;;;10.53;9.53;;;3.70;99.90;;;;;;4991473;28;21230;-80
2020/12/23 09:30:39;;;;;;;10.53;9.43;;;3.70;99.90;;;;;;4986700;28;20482;-80
2020/12/23 09:33:10;;;;;;;10.73;9.63;;;3.70;99.90;;;;;;4992890;28;20477;-80
2020/12/23 09:35:39;;;;;;;11.63;9.70;;;3.90;99.90;;;;;;4987283;28;20512;-80
2020/12/23 09:38:11;;;;;;;10.90;9.90;;;4.00;99.90;;;;;;5038060;28;20484;-80
2020/12/23 09:40:42;;;;;;;11.60;10.50;;;4.00;99.90;;;;;;5033041;28;20479;-80
2020/12/23 09:43:13;;;;;;;13.87;12.57;;;4.00;99.90;;;;;;5012439;28;20531;-81
2020/12/23 09:45:41;;;;;;;13.30;11.93;;;4.00;99.90;;;;;;5039738;28;20468;-81
2020/12/23 09:48:13;;;;;;;12.10;10.80;;;4.00;99.90;;;;;;5040522;28;20503;-80
2020/12/23 09:50:42;;;;;;;15.00;11.43;;;4.00;99.90;;;;;;5040844;28;21020;-81
2020/12/23 09:53:11;;;;;;;13.93;12.43;;;4.00;99.90;;;;;;5039494;28;20502;-81
2020/12/23 09:55:40;;;;;;;13.57;12.17;;;4.10;99.90;;;;;;5035969;28;21402;-81
2020/12/23 09:58:10;;;;;;;14.67;13.17;;;4.10;99.90;;;;;;5036599;28;20484;-79
2020/12/23 10:00:38;;;;;;;15.50;12.77;;;4.10;99.90;;;;;;5036353;28;20489;-79
2020/12/23 10:03:08;;;;;;;16.13;13.70;;;4.10;99.90;;;;;;5033916;28;20491;-79
2020/12/23 10:05:36;;;;;;;16.93;14.17;;;4.10;99.90;;;;;;5026707;28;20851;-79
2020/12/23 10:08:06;;;;;;;16.30;14.60;;;4.20;99.90;;;;;;5032904;28;20504;-80
2020/12/23 10:10:35;;;;;;;18.87;15.47;;;4.30;99.90;;;;;;5031366;28;21311;-81
2020/12/23 10:13:03;;;;;;;16.17;14.40;;;4.30;99.90;;;;;;5019568;28;20518;-81
2020/12/23 10:15:31;;;;;;;18.07;15.50;;;4.40;99.90;;;;;;5016059;28;20870;-80
2020/12/23 10:17:58;;;;;;;16.60;14.90;;;4.40;99.90;;;;;;5020287;28;20497;-80
2020/12/23 10:20:26;;;;;;;16.30;14.60;;;4.40;99.90;;;;;;5017958;28;20517;-80
2020/12/23 10:22:53;;;;;;;18.97;15.83;;;4.40;99.90;;;;;;5016076;28;20515;-80
2020/12/23 10:25:21;;;;;;;19.27;16.27;;;4.50;99.90;;;;;;5034575;28;20531;-80
2020/12/23 10:27:49;;;;;;;25.57;19.20;;;4.70;99.90;;;;;;5029672;28;20477;-80
2020/12/23 10:30:16;;;;;;;22.37;18.20;;;4.70;99.90;;;;;;5032971;28;20496;-80
2020/12/23 10:32:44;;;;;;;18.33;16.43;;;4.80;99.90;;;;;;5031958;28;20489;-80
2020/12/23 10:35:11;;;;;;;18.53;15.87;;;4.70;99.90;;;;;;5033101;28;20549;-80
2020/12/23 10:37:42;;;;;;;17.07;15.30;;;4.70;99.90;;;;;;5033041;28;20481;-82
2020/12/23 10:40:10;;;;;;;17.07;14.83;;;4.70;99.90;;;;;;5014713;28;20496;-82
2020/12/23 10:42:37;;;;;;;17.80;14.73;;;4.70;99.90;;;;;;5021552;28;20989;-80
2020/12/23 10:45:07;;;;;;;15.87;14.20;;;4.70;99.90;;;;;;5029484;28;20493;-81
2020/12/23 10:47:35;;;;;;;15.87;14.27;;;4.70;99.90;;;;;;5016611;28;20476;-80
2020/12/23 10:50:03;;;;;;;16.63;14.23;;;4.80;99.90;;;;;;5013439;28;20543;-80
2020/12/23 10:52:31;;;;;;;19.10;14.23;;;4.70;99.90;;;;;;5026239;28;20874;-80
2020/12/23 10:54:58;;;;;;;16.67;14.83;;;4.80;99.90;;;;;;5029716;28;20477;-80
2020/12/23 10:57:26;;;;;;;16.37;14.73;;;4.80;99.90;;;;;;5030686;28;20483;-80
2020/12/23 10:59:53;;;;;;;18.00;15.03;;;4.80;99.90;;;;;;5030169;28;20490;-80
2020/12/23 11:02:22;;;;;;;17.97;15.43;;;4.80;99.90;;;;;;5007894;28;20492;-81
2020/12/23 11:04:49;;;;;;;17.03;15.33;;;4.80;99.90;;;;;;5026055;28;20531;-80
2020/12/23 11:07:42;;;;;;;18.13;15.17;;;4.90;99.90;;;;;;5019117;28;20541;-80
2020/12/23 11:10:13;;;;;;;17.20;15.27;;;4.90;99.90;;;;;;5009089;28;21093;-81
2020/12/23 11:12:41;;;;;;;20.77;16.97;;;5.10;99.90;;;;;;5022158;28;20534;-81
2020/12/23 11:15:08;;;;;;;19.43;17.37;;;5.20;99.90;;;;;;5026667;28;20481;-80
2020/12/23 11:17:37;;;;;;;23.67;17.13;;;5.30;99.90;;;;;;5023056;28;21011;-80
2020/12/23 11:20:05;;;;;;;19.93;16.97;;;5.20;99.90;;;;;;5027000;28;20482;-80
2020/12/23 11:22:33;;;;;;;19.93;16.63;;;5.10;99.90;;;;;;5028252;28;20475;-81
2020/12/23 11:25:05;;;;;;;17.50;15.63;;;5.10;99.90;;;;;;5020569;28;21046;-81
2020/12/23 11:27:35;;;;;;;20.20;15.47;;;5.20;99.90;;;;;;5009987;28;20503;-81
2020/12/23 11:30:04;;;;;;;24.43;16.80;;;5.20;99.90;;;;;;5028998;28;20559;-80
2020/12/23 11:32:32;;;;;;;19.03;15.17;;;5.20;99.90;;;;;;5009676;28;20831;-80
2020/12/23 11:35:00;;;;;;;18.63;15.67;;;5.20;99.90;;;;;;5025509;28;20515;-81
2020/12/23 11:37:31;;;;;;;19.30;15.10;;;5.30;99.90;;;;;;5035741;28;20470;-81
2020/12/23 11:40:00;;;;;;;20.03;16.80;;;5.20;99.90;;;;;;5019601;28;20493;-81
2020/12/23 11:42:28;;;;;;;21.10;16.43;;;5.20;99.90;;;;;;5048616;28;20558;-81
2020/12/23 11:44:55;;;;;;;19.53;16.23;;;5.20;99.90;;;;;;5048110;28;20529;-81
2020/12/23 11:47:22;;;;;;;20.20;16.53;;;5.20;99.90;;;;;;5033742;28;21375;-81
2020/12/23 11:49:50;;;;;;;22.03;16.97;;;5.20;99.90;;;;;;5018774;28;20567;-81
2020/12/23 11:52:19;;;;;;;22.47;16.70;;;5.20;99.90;;;;;;5034318;28;20600;-82
2020/12/23 11:54:46;;;;;;;25.60;17.83;;;5.20;99.90;;;;;;5029966;28;20561;-82
2020/12/23 11:57:14;;;;;;;28.93;18.40;;;5.20;99.90;;;;;;5027276;28;20565;-80
2020/12/23 11:59:42;;;;;;;30.43;19.20;;;5.10;99.90;;;;;;5026258;28;20570;-80
2020/12/23 12:02:09;;;;;;;28.87;18.73;;;5.20;99.90;;;;;;5012011;28;20474;-81
2020/12/23 12:04:37;;;;;;;33.10;19.83;;;5.20;99.90;;;;;;5028575;28;20486;-82
2020/12/23 12:07:04;;;;;;;33.53;20.97;;;5.20;99.90;;;;;;5028032;28;20556;-80
2020/12/23 12:09:33;;;;;;;39.13;21.07;;;5.20;99.90;;;;;;5026927;28;20842;-81
2020/12/23 12:12:00;;;;;;;35.70;21.03;;;5.20;99.90;;;;;;5033114;28;20871;-80
2020/12/23 12:14:28;;;;;;;34.90;19.93;;;5.20;99.90;;;;;;5034654;28;21391;-80
2020/12/23 12:16:55;;;;;;;36.23;19.20;;;5.20;99.90;;;;;;5034564;28;20539;-81
2020/12/23 12:19:24;;;;;;;36.83;20.50;;;5.30;99.90;;;;;;5020228;28;20880;-80
2020/12/23 12:22:01;;;;;;;37.30;19.40;;;5.20;99.90;;;;;;5021692;28;20487;-81
2020/12/23 12:24:28;;;;;;;30.43;18.80;;;5.30;99.90;;;;;;5028362;28;20505;-80
2020/12/23 12:26:58;;;;;;;30.50;19.40;;;5.40;99.90;;;;;;5029409;28;20491;-81
2020/12/23 12:29:26;;;;;;;30.37;18.13;;;5.30;99.90;;;;;;5030081;28;20295;-81
2020/12/23 12:31:55;;;;;;;27.70;17.10;;;5.40;99.90;;;;;;5029236;28;20566;-79
2020/12/23 12:34:23;;;;;;;30.27;17.97;;;5.60;99.90;;;;;;5028084;28;20482;-80
2020/12/23 12:36:52;;;;;;;30.23;17.33;;;5.50;99.90;;;;;;5028197;28;21119;-81
2020/12/23 12:39:19;;;;;;;28.23;16.93;;;5.50;99.90;;;;;;5029195;28;20272;-81
2020/12/23 12:41:46;;;;;;;27.13;17.23;;;5.40;99.90;;;;;;5029274;28;20290;-79
2020/12/23 12:44:17;;;;;;;26.93;16.43;;;5.50;99.90;;;;;;5030157;28;20576;-80
2020/12/23 12:46:47;;;;;;;28.20;17.23;;;5.40;99.90;;;;;;5029050;28;20928;-80
2020/12/23 12:49:14;;;;;;;27.07;17.13;;;5.50;99.90;;;;;;5028821;28;20281;-80
2020/12/23 12:51:42;;;;;;;26.03;16.43;;;5.50;99.90;;;;;;5027682;28;20518;-81
2020/12/23 12:54:09;;;;;;;25.30;16.40;;;5.50;99.90;;;;;;5010384;28;20502;-81
2020/12/23 12:56:37;;;;;;;22.77;15.43;;;5.60;99.90;;;;;;5008674;28;20637;-80